sensor_id;sensor_type;location;lat;lon;timestamp;temperature;humidity
31809;DHT22;18379;48.208;-1.518;2022-08-19T00:03:43;20.00;99.90
31809;DHT22;18379;48.208;-1.518;2022-08-19T00:08:44;20.00;99.90
31809;DHT22;18379;48.208;-1.518;2022-08-19T00:13:45;20.00;99.90
31809;DHT22;18379;48.208;-1.518;2022-08-19T00:18:47;19.90;99.90
31809;DHT22;18379;48.208;-1.518;2022-08-19T00:23:48;19.90;99.90
31809;DHT22;18379;48.208;-1.518;2022-08-19T00:28:49;19.80;99.90
31809;DHT22;18379;48.208;-1.518;2022-08-19T00:33:50;19.70;99.90
31809;DHT22;18379;48.208;-1.518;2022-08-19T00:38:50;19.60;99.90
31809;DHT22;18379;48.208;-1.518;2022-08-19T00:44:12;19.60;99.90
31809;DHT22;18379;48.208;-1.518;2022-08-19T00:49:30;19.60;99.90
31809;DHT22;18379;48.208;-1.518;2022-08-19T00:54:32;19.60;99.90
31809;DHT22;18379;48.208;-1.518;2022-08-19T00:59:35;19.70;99.90
31809;DHT22;18379;48.208;-1.518;2022-08-19T01:04:37;19.70;99.90
31809;DHT22;18379;48.208;-1.518;2022-08-19T01:09:37;19.60;99.90
31809;DHT22;18379;48.208;-1.518;2022-08-19T01:14:39;19.50;99.90
31809;DHT22;18379;48.208;-1.518;2022-08-19T01:19:42;19.50;99.90
31809;DHT22;18379;48.208;-1.518;2022-08-19T01:24:43;19.50;99.90
31809;DHT22;18379;48.208;-1.518;2022-08-19T01:29:45;19.60;99.90
31809;DHT22;18379;48.208;-1.518;2022-08-19T01:34:45;19.50;99.90
31809;DHT22;18379;48.208;-1.518;2022-08-19T01:39:47;19.50;99.90
31809;DHT22;18379;48.208;-1.518;2022-08-19T01:44:48;19.40;99.90
31809;DHT22;18379;48.208;-1.518;2022-08-19T01:49:49;19.40;99.90
31809;DHT22;18379;48.208;-1.518;2022-08-19T01:54:50;19.30;99.90
31809;DHT22;18379;48.208;-1.518;2022-08-19T01:59:50;19.40;99.90
31809;DHT22;18379;48.208;-1.518;2022-08-19T02:04:52;19.40;99.90
31809;DHT22;18379;48.208;-1.518;2022-08-19T02:09:52;19.50;99.90
31809;DHT22;18379;48.208;-1.518;2022-08-19T02:14:53;19.60;99.90
31809;DHT22;18379;48.208;-1.518;2022-08-19T02:19:57;19.50;99.90
31809;DHT22;18379;48.208;-1.518;2022-08-19T02:24:58;19.60;99.90
31809;DHT22;18379;48.208;-1.518;2022-08-19T02:29:59;19.60;99.90
31809;DHT22;18379;48.208;-1.518;2022-08-19T02:35:02;19.50;99.90
31809;DHT22;18379;48.208;-1.518;2022-08-19T02:40:04;19.50;99.90
31809;DHT22;18379;48.208;-1.518;2022-08-19T02:45:05;19.60;99.90
31809;DHT22;18379;48.208;-1.518;2022-08-19T02:50:06;19.50;99.90
31809;DHT22;18379;48.208;-1.518;2022-08-19T02:55:08;19.50;99.90
31809;DHT22;18379;48.208;-1.518;2022-08-19T03:00:09;19.50;99.90
31809;DHT22;18379;48.208;-1.518;2022-08-19T03:05:13;19.50;99.90
31809;DHT22;18379;48.208;-1.518;2022-08-19T03:10:20;19.60;99.90
31809;DHT22;18379;48.208;-1.518;2022-08-19T03:15:22;19.60;99.90
31809;DHT22;18379;48.208;-1.518;2022-08-19T03:20:23;19.50;99.90
31809;DHT22;18379;48.208;-1.518;2022-08-19T03:25:24;19.50;99.90
31809;DHT22;18379;48.208;-1.518;2022-08-19T03:30:24;19.50;99.90
31809;DHT22;18379;48.208;-1.518;2022-08-19T03:35:26;19.50;99.90
31809;DHT22;18379;48.208;-1.518;2022-08-19T03:40:26;19.50;99.90
31809;DHT22;18379;48.208;-1.518;2022-08-19T03:45:27;19.60;99.90
31809;DHT22;18379;48.208;-1.518;2022-08-19T03:50:28;19.60;99.90
31809;DHT22;18379;48.208;-1.518;2022-08-19T03:55:30;19.90;99.90
31809;DHT22;18379;48.208;-1.518;2022-08-19T04:00:30;19.90;99.90
31809;DHT22;18379;48.208;-1.518;2022-08-19T04:05:32;20.10;99.90
31809;DHT22;18379;48.208;-1.518;2022-08-19T04:10:37;20.10;99.90
31809;DHT22;18379;48.208;-1.518;2022-08-19T04:15:42;20.10;99.90
31809;DHT22;18379;48.208;-1.518;2022-08-19T04:20:46;20.30;99.90
31809;DHT22;18379;48.208;-1.518;2022-08-19T04:25:48;20.30;99.90
31809;DHT22;18379;48.208;-1.518;2022-08-19T04:30:52;20.10;99.90
31809;DHT22;18379;48.208;-1.518;2022-08-19T04:35:53;20.00;99.90
31809;DHT22;18379;48.208;-1.518;2022-08-19T04:40:53;19.90;99.90
31809;DHT22;18379;48.208;-1.518;2022-08-19T04:46:13;19.90;99.90
31809;DHT22;18379;48.208;-1.518;2022-08-19T04:51:13;19.90;99.90
31809;DHT22;18379;48.208;-1.518;2022-08-19T04:56:17;19.90;99.90
31809;DHT22;18379;48.208;-1.518;2022-08-19T05:01:27;19.90;99.90
31809;DHT22;18379;48.208;-1.518;2022-08-19T05:06:33;19.90;99.90
31809;DHT22;18379;48.208;-1.518;2022-08-19T05:11:36;19.90;99.90
31809;DHT22;18379;48.208;-1.518;2022-08-19T05:16:40;20.00;99.90
31809;DHT22;18379;48.208;-1.518;2022-08-19T05:21:42;20.00;99.90
31809;DHT22;18379;48.208;-1.518;2022-08-19T05:27:02;20.00;99.90
31809;DHT22;18379;48.208;-1.518;2022-08-19T05:32:06;20.00;99.90
31809;DHT22;18379;48.208;-1.518;2022-08-19T05:37:10;20.00;99.90
31809;DHT22;18379;48.208;-1.518;2022-08-19T05:42:12;20.00;99.90
31809;DHT22;18379;48.208;-1.518;2022-08-19T05:47:13;20.00;99.90
31809;DHT22;18379;48.208;-1.518;2022-08-19T05:52:15;19.90;99.90
31809;DHT22;18379;48.208;-1.518;2022-08-19T05:57:16;20.00;99.90
31809;DHT22;18379;48.208;-1.518;2022-08-19T06:02:17;20.00;99.90
31809;DHT22;18379;48.208;-1.518;2022-08-19T06:07:18;20.00;99.90
31809;DHT22;18379;48.208;-1.518;2022-08-19T06:12:19;20.00;99.90
31809;DHT22;18379;48.208;-1.518;2022-08-19T06:17:20;19.90;99.90
31809;DHT22;18379;48.208;-1.518;2022-08-19T06:22:25;20.00;99.90
31809;DHT22;18379;48.208;-1.518;2022-08-19T06:27:26;20.00;99.90
31809;DHT22;18379;48.208;-1.518;2022-08-19T06:32:30;20.00;99.90
31809;DHT22;18379;48.208;-1.518;2022-08-19T06:37:30;19.90;99.90
31809;DHT22;18379;48.208;-1.518;2022-08-19T06:42:31;20.00;99.90
31809;DHT22;18379;48.208;-1.518;2022-08-19T06:47:33;20.00;99.90
31809;DHT22;18379;48.208;-1.518;2022-08-19T06:52:35;20.10;99.90
31809;DHT22;18379;48.208;-1.518;2022-08-19T06:57:36;20.10;99.90
31809;DHT22;18379;48.208;-1.518;2022-08-19T07:02:36;20.20;99.90
31809;DHT22;18379;48.208;-1.518;2022-08-19T07:07:37;20.20;99.90
31809;DHT22;18379;48.208;-1.518;2022-08-19T07:12:38;20.10;99.90
31809;DHT22;18379;48.208;-1.518;2022-08-19T07:17:41;19.90;99.90
31809;DHT22;18379;48.208;-1.518;2022-08-19T07:22:43;20.10;99.90
31809;DHT22;18379;48.208;-1.518;2022-08-19T07:27:47;20.10;99.90
31809;DHT22;18379;48.208;-1.518;2022-08-19T07:32:48;20.20;99.90
31809;DHT22;18379;48.208;-1.518;2022-08-19T07:37:51;20.20;99.90
31809;DHT22;18379;48.208;-1.518;2022-08-19T07:42:53;20.20;99.90
31809;DHT22;18379;48.208;-1.518;2022-08-19T07:47:54;20.30;99.90
31809;DHT22;18379;48.208;-1.518;2022-08-19T07:52:55;20.30;99.90
31809;DHT22;18379;48.208;-1.518;2022-08-19T07:57:57;20.40;99.90
31809;DHT22;18379;48.208;-1.518;2022-08-19T08:02:58;20.50;99.90
31809;DHT22;18379;48.208;-1.518;2022-08-19T08:07:59;20.50;99.90
31809;DHT22;18379;48.208;-1.518;2022-08-19T08:13:18;20.60;99.90
31809;DHT22;18379;48.208;-1.518;2022-08-19T08:18:19;20.60;99.90
31809;DHT22;18379;48.208;-1.518;2022-08-19T08:23:20;20.40;99.90
31809;DHT22;18379;48.208;-1.518;2022-08-19T08:28:27;20.60;99.90
31809;DHT22;18379;48.208;-1.518;2022-08-19T08:33:30;20.60;99.90
31809;DHT22;18379;48.208;-1.518;2022-08-19T08:38:32;20.60;99.90
31809;DHT22;18379;48.208;-1.518;2022-08-19T08:43:40;20.80;99.90
31809;DHT22;18379;48.208;-1.518;2022-08-19T08:54:07;21.00;99.90
31809;DHT22;18379;48.208;-1.518;2022-08-19T08:59:30;21.00;99.90
31809;DHT22;18379;48.208;-1.518;2022-08-19T09:04:34;21.30;99.90
31809;DHT22;18379;48.208;-1.518;2022-08-19T09:09:40;21.50;99.90
31809;DHT22;18379;48.208;-1.518;2022-08-19T09:14:46;21.60;99.90
31809;DHT22;18379;48.208;-1.518;2022-08-19T09:19:55;22.00;99.90
31809;DHT22;18379;48.208;-1.518;2022-08-19T09:24:57;22.10;99.90
31809;DHT22;18379;48.208;-1.518;2022-08-19T09:29:58;22.10;99.90
31809;DHT22;18379;48.208;-1.518;2022-08-19T09:34:59;22.10;99.90
31809;DHT22;18379;48.208;-1.518;2022-08-19T09:40:01;22.00;99.90
31809;DHT22;18379;48.208;-1.518;2022-08-19T09:45:02;22.00;99.90
31809;DHT22;18379;48.208;-1.518;2022-08-19T09:50:05;22.10;99.90
31809;DHT22;18379;48.208;-1.518;2022-08-19T09:55:09;22.40;99.90
31809;DHT22;18379;48.208;-1.518;2022-08-19T10:00:10;22.40;99.90
31809;DHT22;18379;48.208;-1.518;2022-08-19T10:05:11;22.50;99.90
31809;DHT22;18379;48.208;-1.518;2022-08-19T10:10:35;22.50;99.90
31809;DHT22;18379;48.208;-1.518;2022-08-19T10:15:36;22.40;99.90
31809;DHT22;18379;48.208;-1.518;2022-08-19T10:20:39;22.50;99.90
31809;DHT22;18379;48.208;-1.518;2022-08-19T10:25:42;22.60;99.90
31809;DHT22;18379;48.208;-1.518;2022-08-19T10:30:43;23.30;99.90
31809;DHT22;18379;48.208;-1.518;2022-08-19T10:35:44;23.20;99.90
31809;DHT22;18379;48.208;-1.518;2022-08-19T10:40:47;22.90;99.90
31809;DHT22;18379;48.208;-1.518;2022-08-19T10:45:54;22.80;99.90
31809;DHT22;18379;48.208;-1.518;2022-08-19T10:50:59;23.30;99.90
31809;DHT22;18379;48.208;-1.518;2022-08-19T10:56:18;23.10;99.90
31809;DHT22;18379;48.208;-1.518;2022-08-19T11:01:38;23.10;99.90
31809;DHT22;18379;48.208;-1.518;2022-08-19T11:06:42;23.00;99.90
31809;DHT22;18379;48.208;-1.518;2022-08-19T11:11:44;23.00;99.90
31809;DHT22;18379;48.208;-1.518;2022-08-19T11:16:45;23.00;99.90
31809;DHT22;18379;48.208;-1.518;2022-08-19T11:21:47;23.00;99.90
31809;DHT22;18379;48.208;-1.518;2022-08-19T11:26:51;23.00;99.90
31809;DHT22;18379;48.208;-1.518;2022-08-19T11:31:52;23.00;99.90
31809;DHT22;18379;48.208;-1.518;2022-08-19T11:36:55;22.90;99.90
31809;DHT22;18379;48.208;-1.518;2022-08-19T11:42:00;22.90;99.90
31809;DHT22;18379;48.208;-1.518;2022-08-19T11:47:04;23.00;99.90
31809;DHT22;18379;48.208;-1.518;2022-08-19T11:52:05;23.00;99.90
31809;DHT22;18379;48.208;-1.518;2022-08-19T11:57:06;23.10;99.90
31809;DHT22;18379;48.208;-1.518;2022-08-19T12:02:07;23.00;99.90
31809;DHT22;18379;48.208;-1.518;2022-08-19T12:07:11;23.00;99.90
31809;DHT22;18379;48.208;-1.518;2022-08-19T12:12:12;22.90;99.90
31809;DHT22;18379;48.208;-1.518;2022-08-19T12:17:12;22.90;99.90
31809;DHT22;18379;48.208;-1.518;2022-08-19T12:22:14;22.90;99.90
31809;DHT22;18379;48.208;-1.518;2022-08-19T12:27:15;23.00;99.90
31809;DHT22;18379;48.208;-1.518;2022-08-19T12:32:16;23.20;99.90
31809;DHT22;18379;48.208;-1.518;2022-08-19T12:37:17;23.30;99.90
31809;DHT22;18379;48.208;-1.518;2022-08-19T12:42:18;23.20;99.90
31809;DHT22;18379;48.208;-1.518;2022-08-19T12:47:20;23.20;99.90
31809;DHT22;18379;48.208;-1.518;2022-08-19T12:52:27;23.30;99.90
31809;DHT22;18379;48.208;-1.518;2022-08-19T12:57:29;23.10;99.90
31809;DHT22;18379;48.208;-1.518;2022-08-19T13:02:37;23.30;99.90
31809;DHT22;18379;48.208;-1.518;2022-08-19T13:07:40;23.40;99.90
31809;DHT22;18379;48.208;-1.518;2022-08-19T13:12:42;23.50;99.90
31809;DHT22;18379;48.208;-1.518;2022-08-19T13:17:47;23.40;99.90
31809;DHT22;18379;48.208;-1.518;2022-08-19T13:22:49;23.50;99.90
31809;DHT22;18379;48.208;-1.518;2022-08-19T13:27:52;23.20;99.90
31809;DHT22;18379;48.208;-1.518;2022-08-19T13:32:55;23.10;99.90
31809;DHT22;18379;48.208;-1.518;2022-08-19T13:38:13;23.10;99.90
31809;DHT22;18379;48.208;-1.518;2022-08-19T13:43:21;22.90;99.90
31809;DHT22;18379;48.208;-1.518;2022-08-19T13:48:24;22.70;99.90
31809;DHT22;18379;48.208;-1.518;2022-08-19T13:53:28;21.90;99.90
31809;DHT22;18379;48.208;-1.518;2022-08-19T13:58:28;21.50;99.90
31809;DHT22;18379;48.208;-1.518;2022-08-19T14:03:31;21.40;99.90
31809;DHT22;18379;48.208;-1.518;2022-08-19T14:08:32;21.30;99.90
31809;DHT22;18379;48.208;-1.518;2022-08-19T14:13:39;21.10;99.90
31809;DHT22;18379;48.208;-1.518;2022-08-19T14:18:42;21.20;99.90
31809;DHT22;18379;48.208;-1.518;2022-08-19T14:23:43;21.10;99.90
31809;DHT22;18379;48.208;-1.518;2022-08-19T14:28:45;20.80;99.90
31809;DHT22;18379;48.208;-1.518;2022-08-19T14:33:47;20.40;99.90
31809;DHT22;18379;48.208;-1.518;2022-08-19T14:38:48;20.20;99.90
31809;DHT22;18379;48.208;-1.518;2022-08-19T14:43:51;20.00;99.90
31809;DHT22;18379;48.208;-1.518;2022-08-19T14:48:54;20.00;99.90
31809;DHT22;18379;48.208;-1.518;2022-08-19T14:53:56;20.10;99.90
31809;DHT22;18379;48.208;-1.518;2022-08-19T14:58:57;20.30;99.90
31809;DHT22;18379;48.208;-1.518;2022-08-19T15:04:02;20.30;99.90
31809;DHT22;18379;48.208;-1.518;2022-08-19T15:09:03;20.10;99.90
31809;DHT22;18379;48.208;-1.518;2022-08-19T15:14:05;19.90;99.90
31809;DHT22;18379;48.208;-1.518;2022-08-19T15:19:06;19.90;99.90
31809;DHT22;18379;48.208;-1.518;2022-08-19T15:24:07;20.20;99.90
31809;DHT22;18379;48.208;-1.518;2022-08-19T15:29:13;20.40;99.90
31809;DHT22;18379;48.208;-1.518;2022-08-19T15:34:16;20.30;99.90
31809;DHT22;18379;48.208;-1.518;2022-08-19T15:39:18;20.20;99.90
31809;DHT22;18379;48.208;-1.518;2022-08-19T15:44:19;20.10;99.90
31809;DHT22;18379;48.208;-1.518;2022-08-19T15:49:21;20.10;99.90
31809;DHT22;18379;48.208;-1.518;2022-08-19T15:54:23;19.70;99.90
31809;DHT22;18379;48.208;-1.518;2022-08-19T15:59:24;19.60;99.90
31809;DHT22;18379;48.208;-1.518;2022-08-19T16:04:44;19.60;99.90
31809;DHT22;18379;48.208;-1.518;2022-08-19T16:10:04;19.60;99.90
31809;DHT22;18379;48.208;-1.518;2022-08-19T16:15:08;19.50;99.90
31809;DHT22;18379;48.208;-1.518;2022-08-19T16:20:09;19.40;99.90
31809;DHT22;18379;48.208;-1.518;2022-08-19T16:25:11;19.40;99.90
31809;DHT22;18379;48.208;-1.518;2022-08-19T16:30:12;19.40;99.90
31809;DHT22;18379;48.208;-1.518;2022-08-19T16:35:13;19.50;99.90
31809;DHT22;18379;48.208;-1.518;2022-08-19T16:40:13;19.70;99.90
31809;DHT22;18379;48.208;-1.518;2022-08-19T16:45:15;19.90;99.90
31809;DHT22;18379;48.208;-1.518;2022-08-19T16:50:19;20.00;99.90
31809;DHT22;18379;48.208;-1.518;2022-08-19T16:55:21;20.20;99.90
31809;DHT22;18379;48.208;-1.518;2022-08-19T17:00:22;20.20;99.90
31809;DHT22;18379;48.208;-1.518;2022-08-19T17:05:22;20.00;99.90
31809;DHT22;18379;48.208;-1.518;2022-08-19T17:10:24;20.10;99.90
31809;DHT22;18379;48.208;-1.518;2022-08-19T17:15:25;20.10;99.90
31809;DHT22;18379;48.208;-1.518;2022-08-19T17:20:25;20.20;99.90
31809;DHT22;18379;48.208;-1.518;2022-08-19T17:25:28;20.40;99.90
31809;DHT22;18379;48.208;-1.518;2022-08-19T17:30:30;20.30;99.90
31809;DHT22;18379;48.208;-1.518;2022-08-19T17:35:32;20.20;99.90
31809;DHT22;18379;48.208;-1.518;2022-08-19T17:40:34;19.80;99.90
31809;DHT22;18379;48.208;-1.518;2022-08-19T17:45:36;19.70;99.90
31809;DHT22;18379;48.208;-1.518;2022-08-19T17:50:38;19.70;99.90
31809;DHT22;18379;48.208;-1.518;2022-08-19T17:55:39;19.80;99.90
31809;DHT22;18379;48.208;-1.518;2022-08-19T18:00:40;19.80;99.90
31809;DHT22;18379;48.208;-1.518;2022-08-19T18:05:42;19.80;99.90
31809;DHT22;18379;48.208;-1.518;2022-08-19T18:10:43;19.80;99.90
31809;DHT22;18379;48.208;-1.518;2022-08-19T18:15:44;19.80;99.90
31809;DHT22;18379;48.208;-1.518;2022-08-19T18:20:45;19.70;99.90
31809;DHT22;18379;48.208;-1.518;2022-08-19T18:25:46;19.60;99.90
31809;DHT22;18379;48.208;-1.518;2022-08-19T18:30:54;19.60;99.90
31809;DHT22;18379;48.208;-1.518;2022-08-19T18:35:55;19.60;99.90
31809;DHT22;18379;48.208;-1.518;2022-08-19T18:41:00;19.60;99.90
31809;DHT22;18379;48.208;-1.518;2022-08-19T18:46:20;19.70;99.90
31809;DHT22;18379;48.208;-1.518;2022-08-19T18:51:41;19.50;99.90
31809;DHT22;18379;48.208;-1.518;2022-08-19T18:56:44;19.40;99.90
31809;DHT22;18379;48.208;-1.518;2022-08-19T19:01:47;19.40;99.90
31809;DHT22;18379;48.208;-1.518;2022-08-19T19:06:50;19.30;99.90
31809;DHT22;18379;48.208;-1.518;2022-08-19T19:11:56;19.30;99.90
31809;DHT22;18379;48.208;-1.518;2022-08-19T19:16:59;19.30;99.90
31809;DHT22;18379;48.208;-1.518;2022-08-19T19:22:02;19.20;99.90
31809;DHT22;18379;48.208;-1.518;2022-08-19T19:27:04;19.10;99.90
31809;DHT22;18379;48.208;-1.518;2022-08-19T19:32:20;19.10;99.90
31809;DHT22;18379;48.208;-1.518;2022-08-19T19:37:21;19.00;99.90
31809;DHT22;18379;48.208;-1.518;2022-08-19T19:42:22;19.00;99.90
31809;DHT22;18379;48.208;-1.518;2022-08-19T19:47:23;18.90;99.90
31809;DHT22;18379;48.208;-1.518;2022-08-19T19:52:25;18.90;99.90
31809;DHT22;18379;48.208;-1.518;2022-08-19T19:57:26;18.70;99.90
31809;DHT22;18379;48.208;-1.518;2022-08-19T20:02:29;18.60;99.90
31809;DHT22;18379;48.208;-1.518;2022-08-19T20:07:30;18.50;99.90
31809;DHT22;18379;48.208;-1.518;2022-08-19T20:12:50;18.50;99.90
31809;DHT22;18379;48.208;-1.518;2022-08-19T20:17:54;18.50;99.90
31809;DHT22;18379;48.208;-1.518;2022-08-19T20:22:55;18.50;99.90
31809;DHT22;18379;48.208;-1.518;2022-08-19T20:27:56;18.60;99.90
31809;DHT22;18379;48.208;-1.518;2022-08-19T20:32:57;18.60;99.90
31809;DHT22;18379;48.208;-1.518;2022-08-19T20:37:59;18.60;99.90
31809;DHT22;18379;48.208;-1.518;2022-08-19T20:43:01;18.50;99.90
31809;DHT22;18379;48.208;-1.518;2022-08-19T20:48:03;18.50;99.90
31809;DHT22;18379;48.208;-1.518;2022-08-19T20:53:13;18.40;99.90
31809;DHT22;18379;48.208;-1.518;2022-08-19T20:58:19;18.50;99.90
31809;DHT22;18379;48.208;-1.518;2022-08-19T21:03:25;18.30;99.90
31809;DHT22;18379;48.208;-1.518;2022-08-19T21:08:26;18.10;99.90
31809;DHT22;18379;48.208;-1.518;2022-08-19T21:13:28;18.20;99.90
31809;DHT22;18379;48.208;-1.518;2022-08-19T21:18:29;18.10;99.90
31809;DHT22;18379;48.208;-1.518;2022-08-19T21:23:31;18.10;99.90
31809;DHT22;18379;48.208;-1.518;2022-08-19T21:28:32;18.20;99.90
31809;DHT22;18379;48.208;-1.518;2022-08-19T21:33:32;18.20;99.90
31809;DHT22;18379;48.208;-1.518;2022-08-19T21:38:33;18.20;99.90
31809;DHT22;18379;48.208;-1.518;2022-08-19T21:43:35;18.20;99.90
31809;DHT22;18379;48.208;-1.518;2022-08-19T21:48:36;18.20;99.90
31809;DHT22;18379;48.208;-1.518;2022-08-19T21:53:37;18.10;99.90
31809;DHT22;18379;48.208;-1.518;2022-08-19T21:58:38;17.90;99.90
31809;DHT22;18379;48.208;-1.518;2022-08-19T22:03:40;17.80;99.90
31809;DHT22;18379;48.208;-1.518;2022-08-19T22:08:42;17.70;99.90
31809;DHT22;18379;48.208;-1.518;2022-08-19T22:13:44;17.60;99.90
31809;DHT22;18379;48.208;-1.518;2022-08-19T22:18:46;17.50;99.90
31809;DHT22;18379;48.208;-1.518;2022-08-19T22:23:47;17.50;99.90
31809;DHT22;18379;48.208;-1.518;2022-08-19T22:28:47;17.60;99.90
31809;DHT22;18379;48.208;-1.518;2022-08-19T22:33:48;17.70;99.90
31809;DHT22;18379;48.208;-1.518;2022-08-19T22:38:51;17.80;99.90
31809;DHT22;18379;48.208;-1.518;2022-08-19T22:43:53;17.80;99.90
31809;DHT22;18379;48.208;-1.518;2022-08-19T22:48:54;17.70;99.90
31809;DHT22;18379;48.208;-1.518;2022-08-19T22:53:55;17.80;99.90
31809;DHT22;18379;48.208;-1.518;2022-08-19T22:58:56;17.70;99.90
31809;DHT22;18379;48.208;-1.518;2022-08-19T23:03:58;17.70;99.90
31809;DHT22;18379;48.208;-1.518;2022-08-19T23:09:00;17.70;99.90
31809;DHT22;18379;48.208;-1.518;2022-08-19T23:14:02;17.70;99.90
31809;DHT22;18379;48.208;-1.518;2022-08-19T23:19:04;17.70;99.90
31809;DHT22;18379;48.208;-1.518;2022-08-19T23:24:05;17.70;99.90
31809;DHT22;18379;48.208;-1.518;2022-08-19T23:29:06;17.30;99.90
31809;DHT22;18379;48.208;-1.518;2022-08-19T23:34:25;17.20;99.90
31809;DHT22;18379;48.208;-1.518;2022-08-19T23:39:26;17.30;99.90
31809;DHT22;18379;48.208;-1.518;2022-08-19T23:44:29;17.40;99.90
31809;DHT22;18379;48.208;-1.518;2022-08-19T23:49:30;17.40;99.90
31809;DHT22;18379;48.208;-1.518;2022-08-19T23:54:31;17.40;99.90
31809;DHT22;18379;48.208;-1.518;2022-08-19T23:59:32;17.50;99.90
